Ballouville, CT (06233)

6:59 AM EDT on September 30, 2014 (GMT -0400)
KCTDANIE4 | Change Station
CLOSE
Current Station
Personal Weather Station
Location: Danielson, CT
Elevation: 236 ft
Nearby Weather Stations

Elev 236 ft 41.81 °N, 71.89 °W | Updated 8 minutes ago

Overcast
Overcast
56.2 °F
Feels Like 56.2 °F
N
0.0
Wind Variable Wind from North
Gusts 8.0 mph

Today
High -- | Low -- °F
--% Chance of Precip.
Yesterday
High -- | Low -- °F
Precip. -- in
6:43 AM 6:30 PM
Waxing Crescent, 35% visible
Pressure 30.00 in
Visibility 10.0 miles
Clouds Overcast 800 ft
Dew Point 48 °F
Humidity 73%
Rainfall 0.01 in
Snow Depth Not available.
UV 0 out of 12
Pollen 2.60 out of 12
Ozone Good
Flu Activity Not available.
METAR KIJD 301052Z AUTO 04007KT 10SM OVC008 14/12 A3000 RMK AO2 SLP159 T01440122

More Conditions Fewer Conditions

Pressure 30.00 in
Visibility 10.0 miles
Clouds Overcast 800 ft
Dew Point 48 °F
Humidity 73%
Rainfall 0.01 in
Snow Depth Not available.
UV 0 out of 12
Pollen 2.60 out of 12
Ozone Good
Flu Activity Not available.
METAR KIJD 301052Z AUTO 04007KT 10SM OVC008 14/12 A3000 RMK AO2 SLP159 T01440122

More Conditions Fewer Conditions

10-Day Weather Forecast

Almanac

Astronomy

Sep. 30, 2014 Rise Set
Actual Time 6:43 AM EDT 6:30 PM EDT
Civil Twilight 6:15 AM EDT 6:58 PM EDT
Nautical Twilight 5:43 AM EDT 7:30 PM EDT
Astronomical Twilight 5:10 AM EDT 8:03 PM EDT
Moon 12:52 PM EDT 10:54 PM EDT
Length of Visible Light 12h 43m
Length of Day
11h 47m
Tomorrow will be 2m 47s shorter.
Waxing Crescent, 35% of the Moon is Illuminated
Today
Waxing Crescent
Oct 1
First Quarter
Oct 8
Full
Oct 15
Last Quarter
Oct 23
New

Today's Extremes

State Highs State Lows

Community

WunderPhotos

Upload Photos

1,757,609 photos uploaded!

WunderBlogs® & News

Nearby

Air Quality

  Air Quality AQ Index Pollutant
Yesterday Good
OZONE
Current Good
OZONE
Tuesday Good
PM2.5
Tuesday Good
OZONE

Snow Depth

Station Depth Elevation
No new snow has been reported.

Earthquake Activity

City Distance Mag. Time & Date
No recent earthquake activity has been reported nearby.
Minimum magnitude displayed is 2.5.

Coastal Water Temperatures

Place Temperature
Newport, RI 66.0 °F
Quonset Point, RI 66.9 °F
Conimicut Light, RI 68.0 °F

Nearby Weather Stations